createdAt,value
2023-05-10T00:00:05.764Z,24.5
2023-05-10T00:01:09.048Z,24.5
2023-05-10T00:02:12.660Z,24.5
2023-05-10T00:03:15.944Z,24.5
2023-05-10T00:04:19.241Z,24.5
2023-05-10T00:05:22.568Z,24.5
2023-05-10T00:06:24.871Z,24.5
2023-05-10T00:07:28.132Z,24.43
2023-05-10T00:08:31.443Z,24.43
2023-05-10T00:09:34.716Z,24.5
2023-05-10T00:10:38.014Z,24.5
2023-05-10T00:11:41.314Z,24.5
2023-05-10T00:12:44.597Z,24.5
2023-05-10T00:13:47.897Z,24.5
2023-05-10T00:14:51.199Z,24.5
2023-05-10T00:15:54.498Z,24.5
2023-05-10T00:16:57.769Z,24.5
2023-05-10T00:18:01.082Z,24.5
2023-05-10T00:19:04.362Z,24.43
2023-05-10T00:20:06.678Z,24.5
2023-05-10T00:21:09.944Z,24.5
2023-05-10T00:22:13.249Z,24.5
2023-05-10T00:23:16.540Z,24.5
2023-05-10T00:24:19.836Z,24.5
2023-05-10T00:25:23.146Z,24.5
2023-05-10T00:26:26.404Z,24.5
2023-05-10T00:27:29.705Z,24.56
2023-05-10T00:28:33.016Z,24.43
2023-05-10T00:29:36.332Z,24.5
2023-05-10T00:30:39.580Z,24.5
2023-05-10T00:31:42.879Z,24.43
2023-05-10T00:32:46.173Z,24.5
2023-05-10T00:33:48.500Z,24.43
2023-05-10T00:34:51.776Z,24.5
2023-05-10T00:35:55.056Z,24.5
2023-05-10T00:36:58.351Z,24.43
2023-05-10T00:38:01.634Z,24.43
2023-05-10T00:39:04.930Z,24.43
2023-05-10T00:40:08.207Z,24.43
2023-05-10T00:41:11.531Z,24.43
2023-05-10T00:42:14.814Z,24.5
2023-05-10T00:43:18.103Z,24.43
2023-05-10T00:44:21.408Z,24.43
2023-05-10T00:45:24.688Z,24.43
2023-05-10T00:46:27.981Z,24.37
2023-05-10T00:47:30.286Z,24.43
2023-05-10T00:48:33.566Z,24.5
2023-05-10T00:49:36.861Z,24.43
2023-05-10T00:50:40.148Z,24.43
2023-05-10T00:51:43.464Z,24.37
2023-05-10T00:52:46.760Z,24.43
2023-05-10T00:53:50.045Z,24.43
2023-05-10T00:54:53.324Z,24.43
2023-05-10T00:55:56.631Z,24.43
2023-05-10T00:56:59.910Z,24.43
2023-05-10T00:58:03.203Z,24.5
2023-05-10T00:59:06.501Z,24.43
2023-05-10T01:00:09.789Z,24.43
2023-05-10T01:01:12.104Z,24.43
2023-05-10T01:02:15.384Z,24.43
2023-05-10T01:03:19.034Z,24.37
2023-05-10T01:04:22.358Z,24.43
2023-05-10T01:05:25.625Z,24.43
2023-05-10T01:06:28.906Z,24.43
2023-05-10T01:07:31.245Z,24.43
2023-05-10T01:08:34.503Z,24.43
2023-05-10T01:09:37.807Z,24.43
2023-05-10T01:10:41.109Z,24.43
2023-05-10T01:11:44.537Z,24.43
2023-05-10T01:12:47.664Z,24.43
2023-05-10T01:13:50.998Z,24.43
2023-05-10T01:14:54.289Z,24.43
2023-05-10T01:15:57.542Z,24.43
2023-05-10T01:17:00.861Z,24.43
2023-05-10T01:18:04.143Z,24.37
2023-05-10T01:19:07.421Z,24.43
2023-05-10T01:20:10.718Z,24.37
2023-05-10T01:21:14.034Z,24.37
2023-05-10T01:22:16.314Z,24.43
2023-05-10T01:23:19.628Z,24.43
2023-05-10T01:24:22.917Z,24.37
2023-05-10T01:25:26.207Z,24.43
2023-05-10T01:26:29.529Z,24.37
2023-05-10T01:27:32.785Z,24.37
2023-05-10T01:28:36.060Z,24.43
2023-05-10T01:29:39.369Z,24.43
2023-05-10T01:30:42.660Z,24.43
2023-05-10T01:31:45.949Z,24.37
2023-05-10T01:32:49.248Z,24.43
2023-05-10T01:33:52.551Z,24.37
2023-05-10T01:34:55.826Z,24.43
2023-05-10T01:35:58.137Z,24.37
2023-05-10T01:37:01.410Z,24.37
2023-05-10T01:38:04.707Z,24.37
2023-05-10T01:39:08.015Z,24.37
2023-05-10T01:40:11.290Z,24.37
2023-05-10T01:41:14.581Z,24.43
2023-05-10T01:42:17.882Z,24.43
2023-05-10T01:43:21.175Z,24.37
2023-05-10T01:44:24.468Z,24.31
2023-05-10T01:45:27.750Z,24.37
2023-05-10T01:46:31.039Z,24.43
2023-05-10T01:47:34.336Z,24.43
2023-05-10T01:48:37.624Z,24.43
2023-05-10T01:49:39.945Z,24.43
2023-05-10T01:50:43.235Z,24.37
2023-05-10T01:51:46.535Z,24.43
2023-05-10T01:52:49.840Z,24.37
2023-05-10T01:53:53.107Z,24.37
2023-05-10T01:54:56.402Z,24.37
2023-05-10T01:55:59.757Z,24.37
2023-05-10T01:57:02.998Z,24.37
2023-05-10T01:58:06.271Z,24.37
2023-05-10T01:59:09.565Z,24.37
2023-05-10T02:00:12.853Z,24.37
2023-05-10T02:01:16.357Z,24.31
2023-05-10T02:02:19.654Z,24.37
2023-05-10T02:03:21.956Z,24.37
2023-05-10T02:04:25.235Z,24.37
2023-05-10T02:05:28.532Z,24.37
2023-05-10T02:06:31.820Z,24.37
2023-05-10T02:07:35.106Z,24.37
2023-05-10T02:08:38.428Z,24.37
2023-05-10T02:09:41.697Z,24.37
2023-05-10T02:10:44.987Z,24.37
2023-05-10T02:11:48.308Z,24.37
2023-05-10T02:12:51.569Z,24.37
2023-05-10T02:13:54.866Z,24.37
2023-05-10T02:14:58.161Z,24.37
2023-05-10T02:16:01.474Z,24.31
2023-05-10T02:17:03.834Z,24.37
2023-05-10T02:18:07.067Z,24.43
2023-05-10T02:19:10.375Z,24.37
2023-05-10T02:20:13.641Z,24.31
2023-05-10T02:21:16.960Z,24.37
2023-05-10T02:22:20.227Z,24.31
2023-05-10T02:23:23.505Z,24.31
2023-05-10T02:24:26.807Z,24.31
2023-05-10T02:25:30.118Z,24.31
2023-05-10T02:26:33.395Z,24.31
2023-05-10T02:27:36.692Z,24.31
2023-05-10T02:28:39.967Z,24.37
2023-05-10T02:29:43.298Z,24.31
2023-05-10T02:30:45.579Z,24.31
2023-05-10T02:31:48.885Z,24.37
2023-05-10T02:32:52.153Z,24.31
2023-05-10T02:33:55.482Z,24.37
2023-05-10T02:34:58.740Z,24.31
2023-05-10T02:36:02.053Z,24.31
2023-05-10T02:37:05.352Z,24.31
2023-05-10T02:38:08.618Z,24.31
2023-05-10T02:39:11.937Z,24.31
2023-05-10T02:40:15.221Z,24.31
2023-05-10T02:41:18.519Z,24.37
2023-05-10T02:42:21.799Z,24.31
2023-05-10T02:43:25.080Z,24.31
2023-05-10T02:44:27.400Z,24.31
2023-05-10T02:45:30.712Z,24.37
2023-05-10T02:46:33.963Z,24.31
2023-05-10T02:47:37.315Z,24.31
2023-05-10T02:48:40.568Z,24.37
2023-05-10T02:49:43.889Z,24.31
2023-05-10T02:50:47.145Z,24.31
2023-05-10T02:51:50.471Z,24.31
2023-05-10T02:52:53.743Z,24.37
2023-05-10T02:53:57.043Z,24.37
2023-05-10T02:55:00.332Z,24.31
2023-05-10T02:56:03.619Z,24.37
2023-05-10T02:57:06.915Z,24.31
2023-05-10T02:58:09.234Z,24.31
2023-05-10T02:59:12.533Z,24.31
2023-05-10T03:00:15.800Z,24.31
2023-05-10T03:01:19.104Z,24.31
2023-05-10T03:02:22.396Z,24.31
2023-05-10T03:03:25.679Z,24.37
2023-05-10T03:04:28.988Z,24.31
2023-05-10T03:05:32.277Z,24.31
2023-05-10T03:06:35.545Z,24.31
2023-05-10T03:07:38.864Z,24.31
2023-05-10T03:08:42.164Z,24.31
2023-05-10T03:09:45.444Z,24.31
2023-05-10T03:10:48.720Z,24.31
2023-05-10T03:11:51.037Z,24.31
2023-05-10T03:12:54.325Z,24.31
2023-05-10T03:13:57.615Z,24.31
2023-05-10T03:15:00.917Z,24.31
2023-05-10T03:16:04.196Z,24.31
2023-05-10T03:17:07.504Z,24.31
2023-05-10T03:18:10.796Z,24.31
2023-05-10T03:19:14.160Z,24.31
2023-05-10T03:20:17.381Z,24.25
2023-05-10T03:21:20.667Z,24.31
2023-05-10T03:22:23.964Z,24.31
2023-05-10T03:23:27.283Z,24.31
2023-05-10T03:24:30.546Z,24.31
2023-05-10T03:25:32.840Z,24.25
2023-05-10T03:26:36.138Z,24.31
2023-05-10T03:27:39.435Z,24.31
2023-05-10T03:28:42.717Z,24.31
2023-05-10T03:29:46.016Z,24.31
2023-05-10T03:30:49.314Z,24.31
2023-05-10T03:31:52.634Z,24.31
2023-05-10T03:32:55.890Z,24.25
2023-05-10T03:33:59.208Z,24.31
2023-05-10T03:35:02.478Z,24.31
2023-05-10T03:36:05.781Z,24.31
2023-05-10T03:37:09.072Z,24.25
2023-05-10T03:38:12.355Z,24.25
2023-05-10T03:39:14.650Z,24.31
2023-05-10T03:40:17.951Z,24.25
2023-05-10T03:41:21.244Z,24.25
2023-05-10T03:42:24.548Z,24.25
2023-05-10T03:43:27.835Z,24.25
2023-05-10T03:44:31.141Z,24.25
2023-05-10T03:45:34.414Z,24.25
2023-05-10T03:46:37.698Z,24.25
2023-05-10T03:47:41.020Z,24.31
2023-05-10T03:48:44.278Z,24.31
2023-05-10T03:49:47.565Z,24.25
2023-05-10T03:50:50.878Z,24.25
2023-05-10T03:51:54.160Z,24.25
2023-05-10T03:52:56.463Z,24.25
2023-05-10T03:53:59.759Z,24.31
2023-05-10T03:55:03.075Z,24.31
2023-05-10T03:56:06.339Z,24.25
2023-05-10T03:57:09.652Z,24.25
2023-05-10T03:58:12.925Z,24.31
2023-05-10T03:59:16.227Z,24.31
2023-05-10T04:00:19.525Z,24.31
2023-05-10T04:01:22.811Z,24.25
2023-05-10T04:02:26.096Z,24.25
2023-05-10T04:03:29.383Z,24.25
2023-05-10T04:04:32.677Z,24.25
2023-05-10T04:05:35.993Z,24.25
2023-05-10T04:06:38.279Z,24.25
2023-05-10T04:07:41.568Z,24.31
2023-05-10T04:08:44.857Z,24.25
2023-05-10T04:09:48.160Z,24.25
2023-05-10T04:10:51.459Z,24.25
2023-05-10T04:11:54.743Z,24.25
2023-05-10T04:12:58.099Z,24.25
2023-05-10T04:14:01.327Z,24.31
2023-05-10T04:15:04.625Z,24.25
2023-05-10T04:16:07.960Z,24.25
2023-05-10T04:17:11.259Z,24.25
2023-05-10T04:18:14.501Z,24.25
2023-05-10T04:19:17.783Z,24.25
2023-05-10T04:20:20.113Z,24.25
2023-05-10T04:21:23.378Z,24.25
2023-05-10T04:22:26.688Z,24.25
2023-05-10T04:23:29.980Z,24.25
2023-05-10T04:24:33.272Z,24.25
2023-05-10T04:25:36.598Z,24.18
2023-05-10T04:26:39.883Z,24.25
2023-05-10T04:27:43.154Z,24.25
2023-05-10T04:28:46.446Z,24.25
2023-05-10T04:29:49.747Z,24.25
2023-05-10T04:30:53.021Z,24.18
2023-05-10T04:31:56.319Z,24.18
2023-05-10T04:32:59.602Z,24.25
2023-05-10T04:34:01.916Z,24.25
2023-05-10T04:35:05.222Z,24.25
2023-05-10T04:36:08.562Z,24.25
2023-05-10T04:37:11.813Z,24.25
2023-05-10T04:38:15.087Z,24.31
2023-05-10T04:39:17.412Z,24.18
2023-05-10T04:40:20.686Z,24.25
2023-05-10T04:41:23.988Z,24.25
2023-05-10T04:42:27.271Z,24.18
2023-05-10T04:43:30.618Z,24.25
2023-05-10T04:44:33.870Z,24.18
2023-05-10T04:45:37.144Z,24.25
2023-05-10T04:46:40.469Z,24.18
2023-05-10T04:47:43.727Z,24.25
2023-05-10T04:48:47.022Z,24.31
2023-05-10T04:49:50.307Z,24.31
2023-05-10T04:50:53.623Z,24.31
2023-05-10T04:51:56.898Z,24.18
2023-05-10T04:52:59.238Z,24.25
2023-05-10T04:54:02.500Z,24.25
2023-05-10T04:55:05.807Z,24.18
2023-05-10T04:56:09.099Z,24.25
2023-05-10T04:57:12.397Z,24.25
2023-05-10T04:58:15.710Z,24.18
2023-05-10T04:59:18.952Z,24.25
2023-05-10T05:00:22.249Z,24.18
2023-05-10T05:01:25.546Z,24.18
2023-05-10T05:02:28.833Z,24.18
2023-05-10T05:03:32.136Z,24.18
2023-05-10T05:04:35.450Z,24.18
2023-05-10T05:05:38.711Z,24.18
2023-05-10T05:06:41.091Z,24.18
2023-05-10T05:07:44.322Z,24.18
2023-05-10T05:08:47.611Z,24.18
2023-05-10T05:09:50.917Z,24.18
2023-05-10T05:10:54.231Z,24.18
2023-05-10T05:11:57.527Z,24.25
2023-05-10T05:13:00.765Z,24.25
2023-05-10T05:14:04.110Z,24.18
2023-05-10T05:15:07.352Z,24.25
2023-05-10T05:16:10.707Z,24.18
2023-05-10T05:17:13.932Z,24.25
2023-05-10T05:18:17.675Z,24.18
2023-05-10T05:19:20.957Z,24.18
2023-05-10T05:20:23.272Z,24.18
2023-05-10T05:21:26.562Z,24.18
2023-05-10T05:22:29.850Z,24.25
2023-05-10T05:23:33.158Z,24.25
2023-05-10T05:24:36.438Z,24.18
2023-05-10T05:25:39.733Z,24.25
2023-05-10T05:26:43.100Z,24.25
2023-05-10T05:27:46.442Z,24.18
2023-05-10T05:28:49.603Z,24.25
2023-05-10T05:29:52.931Z,24.25
2023-05-10T05:30:56.216Z,24.25
2023-05-10T05:31:59.491Z,24.18
2023-05-10T05:33:02.780Z,24.18
2023-05-10T05:34:05.096Z,24.18
2023-05-10T05:35:08.376Z,24.18
2023-05-10T05:36:11.719Z,24.18
2023-05-10T05:37:14.964Z,24.18
2023-05-10T05:38:18.256Z,24.18
2023-05-10T05:39:21.580Z,24.18
2023-05-10T05:40:24.894Z,24.18
2023-05-10T05:41:28.266Z,24.18
2023-05-10T05:42:31.618Z,24.25
2023-05-10T05:43:34.915Z,24.18
2023-05-10T05:44:38.017Z,24.18
2023-05-10T05:45:41.379Z,24.18
2023-05-10T05:46:44.701Z,24.25
2023-05-10T05:47:46.932Z,24.25
2023-05-10T05:48:50.271Z,24.25
2023-05-10T05:49:53.577Z,24.25
2023-05-10T05:50:56.766Z,24.18
2023-05-10T05:52:00.083Z,24.25
2023-05-10T05:53:03.375Z,24.25
2023-05-10T05:54:06.698Z,24.25
2023-05-10T05:55:09.955Z,24.25
2023-05-10T05:56:13.319Z,24.25
2023-05-10T05:57:16.576Z,24.25
2023-05-10T05:58:19.817Z,24.18
2023-05-10T05:59:23.147Z,24.18
2023-05-10T06:00:26.517Z,24.18
2023-05-10T06:01:28.754Z,24.18
2023-05-10T06:02:32.184Z,24.25
2023-05-10T06:03:35.334Z,24.18
2023-05-10T06:04:39.222Z,24.18
2023-05-10T06:05:41.883Z,24.18
2023-05-10T06:06:45.277Z,24.25
2023-05-10T06:07:48.556Z,24.25
2023-05-10T06:08:51.763Z,24.18
2023-05-10T06:09:55.186Z,24.25
2023-05-10T06:10:58.356Z,24.18
2023-05-10T06:12:01.816Z,24.25
2023-05-10T06:13:04.968Z,24.25
2023-05-10T06:14:08.214Z,24.25
2023-05-10T06:15:10.509Z,24.18
2023-05-10T06:16:13.907Z,24.18
2023-05-10T06:17:17.131Z,24.18
2023-05-10T06:18:20.406Z,24.18
2023-05-10T06:19:23.931Z,24.12
2023-05-10T06:20:27.077Z,24.12
2023-05-10T06:21:30.368Z,24.18
2023-05-10T06:22:33.678Z,24.18
2023-05-10T06:23:36.988Z,24.18
2023-05-10T06:24:40.186Z,24.12
2023-05-10T06:25:43.499Z,24.12
2023-05-10T06:27:50.095Z,24.18
2023-05-10T06:28:52.384Z,24.12
2023-05-10T06:29:55.626Z,24.12
2023-05-10T06:30:58.962Z,24.12
2023-05-10T06:32:02.209Z,24.12
2023-05-10T06:33:05.652Z,24.18
2023-05-10T06:34:08.868Z,24.18
2023-05-10T06:35:12.154Z,24.18
2023-05-10T06:36:15.372Z,24.12
2023-05-10T06:37:18.702Z,24.18
2023-05-10T06:38:22.043Z,24.18
2023-05-10T06:39:25.254Z,24.18
2023-05-10T06:40:28.617Z,24.18
2023-05-10T06:41:31.860Z,24.18
2023-05-10T06:42:34.175Z,24.18
2023-05-10T06:43:37.497Z,24.18
2023-05-10T06:44:40.806Z,24.18
2023-05-10T06:45:44.104Z,24.12
2023-05-10T06:46:47.345Z,24.18
2023-05-10T06:47:50.697Z,24.18
2023-05-10T06:48:53.981Z,24.18
2023-05-10T06:49:57.239Z,24.18
2023-05-10T06:51:00.576Z,24.12
2023-05-10T06:52:03.789Z,24.18
2023-05-10T06:53:07.172Z,24.18
2023-05-10T06:54:10.371Z,24.12
2023-05-10T06:55:13.709Z,24.12
2023-05-10T06:56:16.034Z,24.12
2023-05-10T06:57:19.272Z,24.18
2023-05-10T06:58:22.549Z,24.12
2023-05-10T06:59:25.912Z,24.12
2023-05-10T07:00:29.194Z,24.18
2023-05-10T07:01:32.557Z,24.12
2023-05-10T07:02:35.859Z,24.18
2023-05-10T07:03:39.075Z,24.18
2023-05-10T07:04:42.302Z,24.18
2023-05-10T07:05:45.771Z,24.18
2023-05-10T07:06:48.971Z,24.25
2023-05-10T07:07:52.287Z,24.25
2023-05-10T07:08:55.555Z,24.25
2023-05-10T07:09:57.842Z,24.25
2023-05-10T07:11:01.170Z,24.18
2023-05-10T07:12:04.406Z,24.25
2023-05-10T07:13:07.803Z,24.25
2023-05-10T07:14:10.945Z,24.31
2023-05-10T07:15:14.233Z,24.25
2023-05-10T07:16:17.613Z,24.18
2023-05-10T07:17:20.947Z,24.18
2023-05-10T07:18:24.262Z,24.25
2023-05-10T07:19:27.519Z,24.25
2023-05-10T07:20:30.695Z,24.18
2023-05-10T07:21:33.980Z,24.18
2023-05-10T07:22:37.274Z,24.18
2023-05-10T07:23:39.652Z,24.25
2023-05-10T07:24:43.019Z,24.18
2023-05-10T07:25:46.178Z,24.18
2023-05-10T07:26:49.449Z,24.18
2023-05-10T07:27:52.865Z,24.18
2023-05-10T07:28:56.072Z,24.18
2023-05-10T07:29:59.419Z,24.25
2023-05-10T07:31:02.692Z,24.12
2023-05-10T07:32:05.907Z,24.18
2023-05-10T07:33:09.207Z,24.18
2023-05-10T07:34:12.649Z,24.18
2023-05-10T07:35:15.897Z,24.18
2023-05-10T07:36:19.090Z,24.18
2023-05-10T07:37:21.426Z,24.12
2023-05-10T07:38:24.677Z,24.12
2023-05-10T07:39:28.015Z,24.12
2023-05-10T07:40:31.339Z,24.12
2023-05-10T07:41:34.547Z,24.12
2023-05-10T07:42:38.024Z,24.12
2023-05-10T07:43:41.164Z,24.12
2023-05-10T07:44:44.433Z,24.12
2023-05-10T07:45:47.734Z,24.12
2023-05-10T07:46:51.017Z,24.12
2023-05-10T07:47:54.304Z,24.12
2023-05-10T07:48:57.663Z,24.06
2023-05-10T07:50:00.970Z,24.06
2023-05-10T07:51:03.211Z,24.12
2023-05-10T07:52:06.497Z,24.12
2023-05-10T07:53:09.798Z,24.06
2023-05-10T07:54:13.151Z,24.06
2023-05-10T07:55:16.382Z,24.06
2023-05-10T07:56:19.785Z,24.06
2023-05-10T07:57:22.955Z,24.06
2023-05-10T07:58:26.275Z,24
2023-05-10T07:59:29.679Z,24.06
2023-05-10T08:00:32.832Z,24
2023-05-10T08:01:36.120Z,24
2023-05-10T08:02:39.421Z,24.06
2023-05-10T08:03:42.710Z,24.06
2023-05-10T08:04:45.006Z,24
2023-05-10T08:05:48.483Z,24.06
2023-05-10T08:06:51.602Z,24
2023-05-10T08:07:54.997Z,24.06
2023-05-10T08:08:58.286Z,24.06
2023-05-10T08:10:01.483Z,24.12
2023-05-10T08:11:03.847Z,24
2023-05-10T08:12:07.092Z,24.06
2023-05-10T08:13:10.393Z,24.06
2023-05-10T08:14:13.656Z,24.06
2023-05-10T08:15:16.975Z,24.06
2023-05-10T08:16:20.248Z,24.06
2023-05-10T08:17:23.557Z,24.06
2023-05-10T08:18:27.011Z,24.06
2023-05-10T08:19:30.327Z,24.12
2023-05-10T08:20:33.628Z,24.06
2023-05-10T08:21:36.836Z,24.12
2023-05-10T08:22:40.097Z,24.12
2023-05-10T08:23:43.307Z,24.18
2023-05-10T08:24:45.615Z,24.12
2023-05-10T08:25:48.957Z,24.12
2023-05-10T08:26:52.187Z,24.06
2023-05-10T08:27:55.632Z,24.12
2023-05-10T08:28:58.881Z,24.12
2023-05-10T08:30:02.154Z,24.12
2023-05-10T08:31:05.603Z,24.06
2023-05-10T08:32:08.804Z,24.06
2023-05-10T08:33:12.113Z,24.12
2023-05-10T08:34:15.379Z,24.06
2023-05-10T08:35:19.139Z,24.12
2023-05-10T08:36:22.337Z,24.12
2023-05-10T08:37:25.582Z,24.12
2023-05-10T08:38:27.929Z,24.12
2023-05-10T08:39:31.176Z,24.12
2023-05-10T08:40:34.378Z,24.12
2023-05-10T08:41:37.864Z,24.12
2023-05-10T08:42:41.097Z,24.12
2023-05-10T08:43:44.249Z,24.06
2023-05-10T08:44:47.619Z,24.06
2023-05-10T08:45:50.996Z,24.12
2023-05-10T08:46:54.289Z,24.06
2023-05-10T08:47:57.541Z,24.06
2023-05-10T08:49:00.683Z,24
2023-05-10T08:50:03.996Z,24.06
2023-05-10T08:51:07.446Z,24.06
2023-05-10T08:52:09.716Z,24.06
2023-05-10T08:53:12.886Z,24.06
2023-05-10T08:54:16.312Z,24.06
2023-05-10T08:55:19.454Z,24.06
2023-05-10T08:56:22.763Z,24.06
2023-05-10T08:57:26.106Z,24
2023-05-10T08:58:29.450Z,24
2023-05-10T08:59:32.720Z,24
2023-05-10T09:00:36.076Z,24
2023-05-10T09:01:39.329Z,24.06
2023-05-10T09:02:42.535Z,24.06
2023-05-10T09:03:45.790Z,24
2023-05-10T09:04:49.174Z,24.06
2023-05-10T09:05:51.398Z,24
2023-05-10T09:06:54.689Z,24
2023-05-10T09:07:58.009Z,24
2023-05-10T09:09:01.288Z,24
2023-05-10T09:10:04.563Z,24.06
2023-05-10T09:11:07.881Z,24
2023-05-10T09:12:11.196Z,24
2023-05-10T09:13:14.436Z,24
2023-05-10T09:14:17.883Z,24
2023-05-10T09:15:21.036Z,24
2023-05-10T09:16:24.405Z,24
2023-05-10T09:17:27.654Z,24.06
2023-05-10T09:18:30.888Z,24.06
2023-05-10T09:19:33.335Z,24
2023-05-10T09:20:36.504Z,24
2023-05-10T09:21:39.793Z,24
2023-05-10T09:22:43.089Z,24
2023-05-10T09:23:46.370Z,24
2023-05-10T09:24:49.670Z,24
2023-05-10T09:25:52.956Z,24
2023-05-10T09:26:56.263Z,24
2023-05-10T09:27:59.650Z,23.93
2023-05-10T09:29:02.871Z,24
2023-05-10T09:30:06.119Z,24
2023-05-10T09:31:09.449Z,24
2023-05-10T09:32:12.759Z,24
2023-05-10T09:33:15.012Z,24
2023-05-10T09:34:18.320Z,24
2023-05-10T09:35:21.593Z,24
2023-05-10T09:36:24.952Z,24
2023-05-10T09:37:28.184Z,24
2023-05-10T09:38:31.501Z,23.93
2023-05-10T09:39:34.767Z,24
2023-05-10T09:40:38.083Z,24
2023-05-10T09:41:41.330Z,24
2023-05-10T09:42:44.642Z,23.93
2023-05-10T09:43:47.964Z,24
2023-05-10T09:44:51.225Z,23.93
2023-05-10T09:45:54.507Z,24
2023-05-10T09:46:56.828Z,23.93
2023-05-10T09:48:00.177Z,23.93
2023-05-10T09:49:03.402Z,23.93
2023-05-10T09:50:06.700Z,23.93
2023-05-10T09:51:10.004Z,23.93
2023-05-10T09:52:13.310Z,23.93
2023-05-10T09:53:16.587Z,23.93
2023-05-10T09:54:19.872Z,23.93
2023-05-10T09:55:23.161Z,24
2023-05-10T09:56:26.453Z,24
2023-05-10T09:57:29.883Z,24
2023-05-10T09:58:33.087Z,24
2023-05-10T09:59:36.382Z,24
2023-05-10T10:00:38.629Z,24
2023-05-10T10:01:41.934Z,24
2023-05-10T10:02:45.220Z,24
2023-05-10T10:03:48.527Z,24
2023-05-10T10:04:51.863Z,24
2023-05-10T10:05:55.099Z,24
2023-05-10T10:06:58.384Z,24.06
2023-05-10T10:08:01.672Z,24
2023-05-10T10:09:05.002Z,24
2023-05-10T10:10:08.344Z,24
2023-05-10T10:11:11.611Z,24
2023-05-10T10:12:14.871Z,24
2023-05-10T10:13:18.163Z,24.06
2023-05-10T10:14:20.575Z,24
2023-05-10T10:15:23.820Z,24.06
2023-05-10T10:16:27.035Z,24.06
2023-05-10T10:17:30.335Z,24
2023-05-10T10:18:33.646Z,24.06
2023-05-10T10:19:36.921Z,24.06
2023-05-10T10:20:40.205Z,24.06
2023-05-10T10:21:43.503Z,24
2023-05-10T10:22:46.806Z,24
2023-05-10T10:23:50.083Z,24
2023-05-10T10:24:53.432Z,24
2023-05-10T10:25:56.680Z,24.06
2023-05-10T10:26:59.979Z,24
2023-05-10T10:28:02.275Z,23.93
2023-05-10T10:29:05.580Z,24
2023-05-10T10:30:08.863Z,23.93
2023-05-10T10:31:12.145Z,23.93
2023-05-10T10:32:15.544Z,24
2023-05-10T10:33:18.811Z,23.93
2023-05-10T10:34:22.117Z,23.93
2023-05-10T10:35:25.386Z,23.93
2023-05-10T10:36:28.709Z,23.93
2023-05-10T10:37:31.989Z,24
2023-05-10T10:38:35.194Z,24
2023-05-10T10:39:38.590Z,24
2023-05-10T10:40:41.817Z,23.93
2023-05-10T10:41:44.104Z,24
2023-05-10T10:42:47.384Z,24
2023-05-10T10:43:50.683Z,24
2023-05-10T10:44:54.068Z,24
2023-05-10T10:45:57.259Z,24
2023-05-10T10:47:00.541Z,24
2023-05-10T10:48:03.881Z,24
2023-05-10T10:49:07.122Z,24.06
2023-05-10T10:50:10.622Z,24
2023-05-10T10:51:13.820Z,24
2023-05-10T10:52:17.027Z,24
2023-05-10T10:53:20.425Z,24.06
2023-05-10T10:54:23.669Z,24.06
2023-05-10T10:55:25.949Z,24.06
2023-05-10T10:56:29.216Z,24.06
2023-05-10T10:57:32.476Z,24.06
2023-05-10T10:58:35.825Z,24.06
2023-05-10T10:59:39.057Z,24.06
2023-05-10T11:00:42.360Z,24.06
2023-05-10T11:01:45.649Z,24.06
2023-05-10T11:02:48.941Z,24.06
2023-05-10T11:03:52.219Z,24.06
2023-05-10T11:04:55.528Z,24.06
2023-05-10T11:05:58.945Z,24.06
2023-05-10T11:07:02.201Z,24.12
2023-05-10T11:08:05.411Z,24.12
2023-05-10T11:09:07.767Z,24.12
2023-05-10T11:10:11.202Z,24.12
2023-05-10T11:11:14.382Z,24.12
2023-05-10T11:12:17.591Z,24.12
2023-05-10T11:13:20.895Z,24.18
2023-05-10T11:14:24.217Z,24.18
2023-05-10T11:15:27.467Z,24.18
2023-05-10T11:16:30.813Z,24.18
2023-05-10T11:17:34.060Z,24.18
2023-05-10T11:18:37.371Z,24.18
2023-05-10T11:19:40.729Z,24.25
2023-05-10T11:20:44.004Z,24.25
2023-05-10T11:21:47.381Z,24.18
2023-05-10T11:22:49.533Z,24.25
2023-05-10T11:23:52.808Z,24.18
2023-05-10T11:24:56.093Z,24.18
2023-05-10T11:25:59.459Z,24.25
2023-05-10T11:27:02.722Z,24.25
2023-05-10T11:28:05.985Z,24.31
2023-05-10T11:29:09.294Z,24.31
2023-05-10T11:30:12.597Z,24.18
2023-05-10T11:31:15.884Z,24.25
2023-05-10T11:32:19.160Z,24.25
2023-05-10T11:33:22.593Z,24.31
2023-05-10T11:34:25.753Z,24.31
2023-05-10T11:35:29.033Z,24.31
2023-05-10T11:36:31.427Z,24.31
2023-05-10T11:37:34.652Z,24.31
2023-05-10T11:38:37.940Z,24.31
2023-05-10T11:39:41.229Z,24.31
2023-05-10T11:41:47.799Z,24.31
2023-05-10T11:42:50.140Z,24.37
2023-05-10T11:43:53.410Z,24.31
2023-05-10T11:44:56.722Z,24.31
2023-05-10T11:45:59.998Z,24.31
2023-05-10T11:47:03.286Z,24.31
2023-05-10T11:48:06.593Z,24.37
2023-05-10T11:49:09.985Z,24.31
2023-05-10T11:50:13.172Z,24.37
2023-05-10T11:51:16.456Z,24.37
2023-05-10T11:52:20.300Z,24.37
2023-05-10T11:53:23.581Z,24.37
2023-05-10T11:54:26.866Z,24.37
2023-05-10T11:55:30.164Z,24.37
2023-05-10T11:56:32.505Z,24.37
2023-05-10T11:57:35.814Z,24.37
2023-05-10T11:58:39.058Z,24.37
2023-05-10T11:59:42.348Z,24.37
2023-05-10T12:00:45.651Z,24.37
2023-05-10T12:01:48.955Z,24.43
2023-05-10T12:02:52.286Z,24.37
2023-05-10T12:03:55.522Z,24.37
2023-05-10T12:04:58.827Z,24.43
2023-05-10T12:06:02.113Z,24.43
2023-05-10T12:07:05.465Z,24.37
2023-05-10T12:08:08.710Z,24.37
2023-05-10T12:09:11.979Z,24.37
2023-05-10T12:10:14.289Z,24.31
2023-05-10T12:11:17.572Z,24.37
2023-05-10T12:12:20.895Z,24.43
2023-05-10T12:13:24.153Z,24.37
2023-05-10T12:14:27.454Z,24.37
2023-05-10T12:15:30.753Z,24.37
2023-05-10T12:16:34.054Z,24.37
2023-05-10T12:17:37.333Z,24.43
2023-05-10T12:18:40.646Z,24.43
2023-05-10T12:19:43.921Z,24.31
2023-05-10T12:20:47.223Z,24.37
2023-05-10T12:21:50.510Z,24.37
2023-05-10T12:22:53.796Z,24.37
2023-05-10T12:23:56.177Z,24.37
2023-05-10T12:24:59.394Z,24.37
2023-05-10T12:26:02.679Z,24.37
2023-05-10T12:27:05.980Z,24.37
2023-05-10T12:28:09.313Z,24.37
2023-05-10T12:29:12.567Z,24.37
2023-05-10T12:30:15.853Z,24.37
2023-05-10T12:31:19.166Z,24.37
2023-05-10T12:32:22.495Z,24.37
2023-05-10T12:33:25.733Z,24.31
2023-05-10T12:34:29.040Z,24.37
2023-05-10T12:35:32.317Z,24.43
2023-05-10T12:36:35.603Z,24.37
2023-05-10T12:37:37.919Z,24.43
2023-05-10T12:38:41.222Z,24.43
2023-05-10T12:39:44.505Z,24.43
2023-05-10T12:40:47.800Z,24.43
2023-05-10T12:41:51.108Z,24.43
2023-05-10T12:42:54.377Z,24.43
2023-05-10T12:43:57.675Z,24.37
2023-05-10T12:45:00.949Z,24.37
2023-05-10T12:46:04.235Z,24.37
2023-05-10T12:47:07.633Z,24.43
2023-05-10T12:48:10.855Z,24.37
2023-05-10T12:49:14.135Z,24.5
2023-05-10T12:50:17.588Z,24.43
2023-05-10T12:51:19.865Z,24.43
2023-05-10T12:52:23.078Z,24.43
2023-05-10T12:54:29.782Z,24.43
2023-05-10T12:55:32.954Z,24.43
2023-05-10T12:56:36.222Z,24.43
2023-05-10T12:57:39.567Z,24.5
2023-05-10T12:58:42.874Z,24.43
2023-05-10T12:59:46.300Z,24.43
2023-05-10T13:00:49.464Z,24.43
2023-05-10T13:01:52.696Z,24.43
2023-05-10T13:02:55.990Z,24.43
2023-05-10T13:03:59.312Z,24.43
2023-05-10T13:05:01.617Z,24.43
2023-05-10T13:06:04.890Z,24.43
2023-05-10T13:08:11.525Z,24.43
2023-05-10T13:09:14.793Z,24.43
2023-05-10T13:10:18.126Z,24.43
2023-05-10T13:11:21.359Z,24.43
2023-05-10T13:12:24.625Z,24.43
2023-05-10T13:13:27.968Z,24.43
2023-05-10T13:14:31.316Z,24.43
2023-05-10T13:15:34.517Z,24.43
2023-05-10T13:16:37.786Z,24.43
2023-05-10T13:17:41.191Z,24.5
2023-05-10T13:18:43.430Z,24.5
2023-05-10T13:19:46.711Z,24.43
2023-05-10T13:20:50.012Z,24.5
2023-05-10T13:21:53.277Z,24.43
2023-05-10T13:22:56.707Z,24.5
2023-05-10T13:23:59.884Z,24.5
2023-05-10T13:25:03.136Z,24.5
2023-05-10T13:26:06.436Z,24.5
2023-05-10T13:27:09.822Z,24.43
2023-05-10T13:28:13.036Z,24.5
2023-05-10T13:29:16.326Z,24.5
2023-05-10T13:30:19.620Z,24.5
2023-05-10T13:31:22.942Z,24.5
2023-05-10T13:32:25.221Z,24.5
2023-05-10T13:33:28.592Z,24.43
2023-05-10T13:34:31.796Z,24.5
2023-05-10T13:35:35.088Z,24.5
2023-05-10T13:36:38.402Z,24.5
2023-05-10T13:37:41.859Z,24.5
2023-05-10T13:38:44.945Z,24.5
2023-05-10T13:39:48.329Z,24.5
2023-05-10T13:40:51.547Z,24.5
2023-05-10T13:41:54.879Z,24.56
2023-05-10T13:42:58.152Z,24.56
2023-05-10T13:44:01.437Z,24.5
2023-05-10T13:45:04.702Z,24.56
2023-05-10T13:46:07.024Z,24.5
2023-05-10T13:47:10.309Z,24.56
2023-05-10T13:48:13.669Z,24.56